Grayhound — 2FMM5 — position and weather

sailwx.info

Track history (hours):
 
Tides and Currents Weather Stations Pressure Air Temp Water Temp Dewpoint Dewpoint Depression Visibility Wind Speed Wind Dir Waves Ship Positions

Grayhound

Last reported at 2019-May-21 10:58 UTC. Time now 2019-May-22 16:46 UTC.
Position N 48°15' W 004°42'.

Type: Sailing vessel. MMSI: 235092485.

Date/timePositionNaut miles runAvg speedWind from/ knotsBaromVisibWave heightAir tempDewpointWater temp
2019-May-21 10:58N 48°15' W 004°42'6 5.6
2019-May-21 09:53N 48°10' W 004°36'6 6.1
2019-May-21 08:58N 48°08' W 004°28'6 3.9
2019-May-21 07:33N 48°06' W 004°20'0 0.1
2019-May-21 06:53N 48°06' W 004°20'0 0.3
2019-May-21 05:33N 48°06' W 004°20'0 0.0
2019-May-21 04:33N 48°06' W 004°20'0 0.0
2019-May-21 03:48N 48°06' W 004°20'0 0.0
2019-May-21 02:33N 48°06' W 004°20'0 0.0
2019-May-20 23:33N 48°06' W 004°20'0 0.0
2019-May-20 21:33N 48°06' W 004°20'0 0.0
2019-May-20 19:48N 48°06' W 004°20'0 0.0
2019-May-20 18:48N 48°06' W 004°20'0 0.0
2019-May-20 17:48N 48°06' W 004°20'0 0.0
2019-May-20 16:33N 48°06' W 004°20'0 0.0
2019-May-20 15:33N 48°06' W 004°20'1 0.9
2019-May-20 14:58N 48°06' W 004°20'0 0.0
2019-May-20 13:43N 48°06' W 004°20'2 2.3
2019-May-20 12:58N 48°08' W 004°21'1 1.2
2019-May-20 11:58N 48°07' W 004°19'4 4.1
2019-May-20 10:58N 48°11' W 004°21'3 3.0
2019-May-20 09:58N 48°10' W 004°25'2 2.0
2019-May-20 08:58N 48°12' W 004°25'5 0.3
2019-May-19 18:43N 48°10' W 004°31'4 5.0
2019-May-19 17:58N 48°09' W 004°37'5 5.4
2019-May-19 17:07N 48°14' W 004°37'1 4.7
2019-May-19 16:58N 48°15' W 004°38'2 4.9
2019-May-19 16:30N 48°17' W 004°38'2 3.6
2019-May-19 16:00N 48°18' W 004°35'1 0.2
2019-May-19 12:58N 48°17' W 004°35'0 0.0
2019-May-19 11:58N 48°17' W 004°35'0 0.0
2019-May-19 10:43N 48°17' W 004°35'0 0.0
2019-May-19 09:58N 48°17' W 004°35'0 0.0
2019-May-19 07:58N 48°17' W 004°35'0 0.0
2019-May-19 06:43N 48°17' W 004°35'0 0.0
2019-May-19 05:58N 48°17' W 004°35'0 0.0
2019-May-19 04:58N 48°17' W 004°35'0 0.0
2019-May-19 03:58N 48°17' W 004°35'0 0.0
2019-May-19 02:43N 48°17' W 004°35'0 0.0
2019-May-19 01:58N 48°17' W 004°35'0 0.0
2019-May-19 00:58N 48°17' W 004°35'0 0.0
2019-May-18 23:58N 48°17' W 004°35'0 0.1
2019-May-18 21:04N 48°17' W 004°35'0 3.2
2019-May-18 21:00N 48°17' W 004°35'1 2.4
2019-May-18 20:30N 48°18' W 004°37'2 3.8
2019-May-18 19:59N 48°18' W 004°40'  
Track history (hours):
 
Tides and Currents Weather Stations Pressure Air Temp Water Temp Dewpoint Dewpoint Depression Visibility Wind Speed Wind Dir Waves Ship Positions

Grayhound

Last reported at 2019-May-21 10:58 UTC. Time now 2019-May-22 16:46 UTC.
Position N 48°15' W 004°42'.

Type: Sailing vessel. MMSI: 235092485.

Date/timePositionNaut miles runAvg speedWind from/ knotsBaromVisibWave heightAir tempDewpointWater temp
2019-May-21 10:58N 48°15' W 004°42'6 5.6
2019-May-21 09:53N 48°10' W 004°36'6 6.1
2019-May-21 08:58N 48°08' W 004°28'6 3.9
2019-May-21 07:33N 48°06' W 004°20'0 0.1
2019-May-21 06:53N 48°06' W 004°20'0 0.3
2019-May-21 05:33N 48°06' W 004°20'0 0.0
2019-May-21 04:33N 48°06' W 004°20'0 0.0
2019-May-21 03:48N 48°06' W 004°20'0 0.0
2019-May-21 02:33N 48°06' W 004°20'0 0.0
2019-May-20 23:33N 48°06' W 004°20'0 0.0
2019-May-20 21:33N 48°06' W 004°20'0 0.0
2019-May-20 19:48N 48°06' W 004°20'0 0.0
2019-May-20 18:48N 48°06' W 004°20'0 0.0
2019-May-20 17:48N 48°06' W 004°20'0 0.0
2019-May-20 16:33N 48°06' W 004°20'0 0.0
2019-May-20 15:33N 48°06' W 004°20'1 0.9
2019-May-20 14:58N 48°06' W 004°20'0 0.0
2019-May-20 13:43N 48°06' W 004°20'2 2.3
2019-May-20 12:58N 48°08' W 004°21'1 1.2
2019-May-20 11:58N 48°07' W 004°19'4 4.1
2019-May-20 10:58N 48°11' W 004°21'3 3.0
2019-May-20 09:58N 48°10' W 004°25'2 2.0
2019-May-20 08:58N 48°12' W 004°25'5 0.3
2019-May-19 18:43N 48°10' W 004°31'4 5.0
2019-May-19 17:58N 48°09' W 004°37'5 5.4
2019-May-19 17:07N 48°14' W 004°37'1 4.7
2019-May-19 16:58N 48°15' W 004°38'2 4.9
2019-May-19 16:30N 48°17' W 004°38'2 3.6
2019-May-19 16:00N 48°18' W 004°35'1 0.2
2019-May-19 12:58N 48°17' W 004°35'0 0.0
2019-May-19 11:58N 48°17' W 004°35'0 0.0
2019-May-19 10:43N 48°17' W 004°35'0 0.0
2019-May-19 09:58N 48°17' W 004°35'0 0.0
2019-May-19 07:58N 48°17' W 004°35'0 0.0
2019-May-19 06:43N 48°17' W 004°35'0 0.0
2019-May-19 05:58N 48°17' W 004°35'0 0.0
2019-May-19 04:58N 48°17' W 004°35'0 0.0
2019-May-19 03:58N 48°17' W 004°35'0 0.0
2019-May-19 02:43N 48°17' W 004°35'0 0.0
2019-May-19 01:58N 48°17' W 004°35'0 0.0
2019-May-19 00:58N 48°17' W 004°35'0 0.0
2019-May-18 23:58N 48°17' W 004°35'0 0.1
2019-May-18 21:04N 48°17' W 004°35'0 3.2
2019-May-18 21:00N 48°17' W 004°35'1 2.4
2019-May-18 20:30N 48°18' W 004°37'2 3.8
2019-May-18 19:59N 48°18' W 004°40'  

Dump ship's entire track history